createdAt,value
2018-11-13T00:01:43.386Z,37.07
2018-11-13T00:04:10.920Z,36.17
2018-11-13T00:06:38.327Z,33.40
2018-11-13T00:09:06.939Z,37.20
2018-11-13T00:11:34.461Z,36.37
2018-11-13T00:14:01.842Z,39.80
2018-11-13T00:16:29.298Z,37.10
2018-11-13T00:18:56.795Z,36.30
2018-11-13T00:21:24.246Z,42.83
2018-11-13T00:23:51.783Z,32.30
2018-11-13T00:29:24.716Z,36.93
2018-11-13T00:31:52.170Z,37.00
2018-11-13T00:34:19.605Z,43.43
2018-11-13T00:36:47.165Z,43.77
2018-11-13T00:39:14.900Z,46.10
2018-11-13T00:41:42.390Z,35.07
2018-11-13T00:44:10.424Z,35.53
2018-11-13T00:46:38.302Z,34.83
2018-11-13T00:49:05.794Z,36.40
2018-11-13T00:51:33.267Z,35.33
2018-11-13T00:54:00.756Z,35.70
2018-11-13T00:56:28.193Z,35.47
2018-11-13T00:58:55.769Z,36.90
2018-11-13T01:01:24.299Z,31.57
2018-11-13T01:03:51.803Z,35.23
2018-11-13T01:06:19.215Z,31.00
2018-11-13T01:08:46.721Z,35.13
2018-11-13T01:11:14.145Z,38.43
2018-11-13T01:13:41.739Z,41.37
2018-11-13T01:16:09.237Z,43.63
2018-11-13T01:18:36.660Z,40.60
2018-11-13T01:21:04.069Z,40.33
2018-11-13T01:23:31.516Z,32.20
2018-11-13T01:25:58.941Z,39.30
2018-11-13T01:28:26.336Z,35.27
2018-11-13T01:30:53.753Z,38.70
2018-11-13T01:33:21.173Z,43.30
2018-11-13T01:35:48.581Z,37.43
2018-11-13T01:38:16.024Z,39.03
2018-11-13T01:40:43.417Z,43.10
2018-11-13T01:43:10.812Z,41.07
2018-11-13T01:45:38.278Z,41.30
2018-11-13T01:48:05.849Z,58.10
2018-11-13T01:50:33.218Z,45.63
2018-11-13T01:53:00.655Z,52.17
2018-11-13T01:55:28.069Z,42.20
2018-11-13T01:57:55.497Z,39.43
2018-11-13T02:00:23.761Z,38.07
2018-11-13T02:02:53.118Z,38.27
2018-11-13T02:05:22.682Z,37.80
2018-11-13T02:07:50.481Z,38.63
2018-11-13T02:10:18.339Z,38.80
2018-11-13T02:12:46.202Z,38.87
2018-11-13T02:15:13.624Z,37.97
2018-11-13T02:17:41.065Z,34.23
2018-11-13T02:20:09.428Z,35.93
2018-11-13T02:22:36.843Z,35.77
2018-11-13T02:26:07.291Z,33.93
2018-11-13T02:28:34.743Z,31.13
2018-11-13T02:31:02.133Z,31.30
2018-11-13T02:33:29.806Z,30.83
2018-11-13T02:35:57.273Z,31.13
2018-11-13T02:38:24.703Z,31.67
2018-11-13T02:40:52.092Z,32.37
2018-11-13T02:43:19.626Z,31.77
2018-11-13T02:45:47.042Z,29.70
2018-11-13T02:48:14.457Z,29.57
2018-11-13T02:50:41.890Z,29.20
2018-11-13T02:53:09.330Z,28.20
2018-11-13T02:55:36.747Z,29.53
2018-11-13T02:58:04.222Z,27.23
2018-11-13T03:00:31.638Z,28.03
2018-11-13T03:02:59.068Z,29.20
2018-11-13T03:05:26.514Z,28.20
2018-11-13T03:07:53.929Z,27.77
2018-11-13T03:10:21.496Z,29.07
2018-11-13T03:12:48.928Z,27.47
2018-11-13T03:15:17.604Z,26.53
2018-11-13T03:17:45.071Z,27.07
2018-11-13T03:20:14.046Z,27.33
2018-11-13T03:22:42.035Z,28.03
2018-11-13T03:25:10.869Z,26.83
2018-11-13T03:27:39.260Z,28.03
2018-11-13T03:30:10.849Z,37.83
2018-11-13T03:32:38.305Z,34.53
2018-11-13T03:35:05.780Z,43.40
2018-11-13T03:37:33.205Z,194.07
2018-11-13T03:40:00.648Z,39.70
2018-11-13T03:42:28.082Z,41.93
2018-11-13T03:44:55.464Z,32.80
2018-11-13T03:47:22.890Z,32.57
2018-11-13T03:49:50.306Z,31.73
2018-11-13T03:52:17.706Z,33.47
2018-11-13T03:54:45.098Z,36.43
2018-11-13T03:57:12.516Z,32.97
2018-11-13T03:59:39.946Z,31.00
2018-11-13T04:02:07.344Z,32.23
2018-11-13T04:04:34.779Z,37.13
2018-11-13T04:07:02.168Z,48.63
2018-11-13T04:09:29.557Z,45.13
2018-11-13T04:11:56.981Z,53.10
2018-11-13T04:14:24.434Z,55.27
2018-11-13T04:16:51.838Z,53.20
2018-11-13T04:19:19.257Z,53.17
2018-11-13T04:21:52.909Z,32.50
2018-11-13T04:24:20.338Z,34.00
2018-11-13T04:26:47.745Z,37.63
2018-11-13T04:29:15.120Z,38.23
2018-11-13T04:31:42.524Z,35.17
2018-11-13T04:34:09.920Z,34.20
2018-11-13T04:36:37.295Z,30.63
2018-11-13T04:39:05.933Z,31.83
2018-11-13T04:41:33.350Z,30.53
2018-11-13T04:44:00.751Z,31.43
2018-11-13T04:46:28.201Z,40.03
2018-11-13T04:48:56.783Z,42.33
2018-11-13T04:51:24.216Z,35.70
2018-11-13T04:53:51.627Z,33.70
2018-11-13T04:56:19.095Z,34.20
2018-11-13T04:58:46.559Z,33.73
2018-11-13T05:01:13.943Z,33.73
2018-11-13T05:03:41.344Z,34.70
2018-11-13T05:06:08.813Z,37.50
2018-11-13T05:08:36.318Z,34.43
2018-11-13T05:11:03.751Z,33.03
2018-11-13T05:13:31.167Z,30.90
2018-11-13T05:15:58.598Z,31.67
2018-11-13T05:18:25.994Z,32.47
2018-11-13T05:20:53.416Z,31.90
2018-11-13T05:23:20.846Z,32.50
2018-11-13T05:25:48.245Z,34.67
2018-11-13T05:28:15.646Z,33.83
2018-11-13T05:30:43.076Z,34.90
2018-11-13T05:33:10.486Z,33.00
2018-11-13T05:35:37.902Z,46.63
2018-11-13T05:38:05.339Z,48.67
2018-11-13T05:40:32.815Z,51.73
2018-11-13T05:43:00.281Z,49.30
2018-11-13T05:45:27.697Z,48.43
2018-11-13T05:47:55.109Z,34.70
2018-11-13T05:50:22.520Z,35.17
2018-11-13T05:52:51.294Z,34.83
2018-11-13T05:55:18.680Z,33.17
2018-11-13T05:57:46.172Z,37.97
2018-11-13T06:00:16.474Z,38.60
2018-11-13T06:02:43.920Z,66.40
2018-11-13T06:05:12.021Z,42.07
2018-11-13T06:07:39.501Z,35.73
2018-11-13T06:10:07.536Z,37.03
2018-11-13T06:12:34.941Z,42.50
2018-11-13T06:15:02.395Z,38.67
2018-11-13T06:17:29.787Z,69.87
2018-11-13T06:19:57.245Z,55.73
2018-11-13T06:22:24.693Z,60.73
2018-11-13T06:24:52.077Z,40.47
2018-11-13T06:27:19.507Z,38.70
2018-11-13T06:29:47.025Z,38.90
2018-11-13T06:32:14.380Z,38.83
2018-11-13T06:34:41.893Z,36.70
2018-11-13T06:37:09.973Z,37.50
2018-11-13T06:39:37.362Z,38.83
2018-11-13T06:42:04.980Z,38.50
2018-11-13T06:44:32.418Z,36.37
2018-11-13T06:46:59.806Z,35.53
2018-11-13T06:49:27.263Z,34.83
2018-11-13T06:51:54.714Z,34.30
2018-11-13T06:54:28.008Z,35.53
2018-11-13T06:56:55.474Z,35.13
2018-11-13T06:59:23.725Z,35.27
2018-11-13T07:01:51.207Z,34.73
2018-11-13T07:04:19.397Z,36.37
2018-11-13T07:06:47.089Z,34.20
2018-11-13T07:09:14.486Z,35.93
2018-11-13T07:11:42.961Z,32.40
2018-11-13T07:14:11.038Z,33.83
2018-11-13T07:16:38.438Z,33.00
2018-11-13T07:19:06.530Z,32.17
2018-11-13T07:21:33.961Z,30.73
2018-11-13T07:24:01.358Z,31.03
2018-11-13T07:26:28.834Z,30.33
2018-11-13T07:28:56.242Z,30.47
2018-11-13T07:31:24.362Z,28.93
2018-11-13T07:33:51.762Z,32.33
2018-11-13T07:36:19.161Z,34.83
2018-11-13T07:38:46.590Z,33.63
2018-11-13T07:41:14.115Z,35.70
2018-11-13T07:43:41.482Z,32.30
2018-11-13T07:46:08.881Z,33.07
2018-11-13T07:48:37.166Z,35.30
2018-11-13T07:51:05.409Z,42.43
2018-11-13T07:53:32.795Z,41.13
2018-11-13T07:56:00.799Z,35.23
2018-11-13T07:58:28.210Z,30.37
2018-11-13T08:00:55.609Z,28.80
2018-11-13T08:03:27.953Z,28.50
2018-11-13T08:05:55.361Z,29.60
2018-11-13T08:08:22.738Z,26.87
2018-11-13T08:10:50.642Z,26.67
2018-11-13T08:13:18.917Z,38.80
2018-11-13T08:15:46.214Z,29.47
2018-11-13T08:18:13.632Z,25.57
2018-11-13T08:20:41.038Z,27.30
2018-11-13T08:23:08.429Z,27.20
2018-11-13T08:25:35.888Z,26.73
2018-11-13T08:28:03.303Z,26.73
2018-11-13T08:30:30.661Z,26.67
2018-11-13T08:32:58.102Z,25.53
2018-11-13T08:35:25.510Z,25.47
2018-11-13T08:37:52.889Z,27.53
2018-11-13T08:40:20.310Z,25.50
2018-11-13T08:42:47.946Z,26.73
2018-11-13T08:45:16.315Z,25.57
2018-11-13T08:47:44.522Z,26.73
2018-11-13T08:50:12.567Z,26.13
2018-11-13T08:52:40.602Z,24.20
2018-11-13T08:55:08.373Z,31.17
2018-11-13T08:57:36.908Z,24.13
2018-11-13T09:00:05.421Z,27.07
2018-11-13T09:02:32.876Z,26.67
2018-11-13T09:05:00.452Z,26.27
2018-11-13T09:07:28.542Z,25.83
2018-11-13T09:09:56.671Z,27.67
2018-11-13T09:12:24.079Z,26.33
2018-11-13T09:14:53.050Z,27.47
2018-11-13T09:17:21.050Z,27.33
2018-11-13T09:19:48.987Z,28.07
2018-11-13T09:22:16.378Z,27.90
2018-11-13T09:24:43.831Z,28.33
2018-11-13T09:27:11.286Z,29.37
2018-11-13T09:29:38.677Z,26.10
2018-11-13T09:32:06.082Z,27.07
2018-11-13T09:34:33.538Z,25.67
2018-11-13T09:37:00.967Z,24.07
2018-11-13T09:39:28.374Z,23.23
2018-11-13T09:41:55.808Z,24.30
2018-11-13T09:44:23.182Z,23.37
2018-11-13T09:46:51.154Z,24.17
2018-11-13T09:49:18.561Z,24.17
2018-11-13T09:51:46.026Z,23.10
2018-11-13T09:54:13.421Z,22.17
2018-11-13T09:56:40.831Z,22.53
2018-11-13T09:59:08.236Z,20.53
2018-11-13T10:01:36.163Z,20.13
2018-11-13T10:04:03.684Z,20.67
2018-11-13T10:06:30.508Z,17.87
2018-11-13T10:08:57.973Z,17.93
2018-11-13T10:11:25.351Z,17.27
2018-11-13T10:13:52.746Z,18.60
2018-11-13T10:16:20.202Z,18.03
2018-11-13T10:18:47.584Z,18.40
2018-11-13T10:21:14.993Z,17.47
2018-11-13T10:23:42.445Z,18.40
2018-11-13T10:26:09.900Z,17.40
2018-11-13T10:28:37.327Z,19.07
2018-11-13T10:31:04.738Z,19.10
2018-11-13T10:33:32.138Z,18.73
2018-11-13T10:35:59.521Z,18.17
2018-11-13T10:38:27.584Z,18.53
2018-11-13T10:40:55.099Z,19.67
2018-11-13T10:43:22.489Z,18.40
2018-11-13T10:45:51.202Z,19.13
2018-11-13T10:48:18.598Z,19.90
2018-11-13T10:50:45.977Z,19.03
2018-11-13T10:53:13.472Z,19.77
2018-11-13T10:55:41.489Z,19.17
2018-11-13T10:58:09.729Z,18.30
2018-11-13T11:00:42.572Z,19.90
2018-11-13T11:03:15.268Z,19.33
2018-11-13T11:05:42.846Z,18.30
2018-11-13T11:08:10.874Z,17.97
2018-11-13T11:10:39.446Z,17.83
2018-11-13T11:13:06.998Z,18.83
2018-11-13T11:15:35.357Z,18.53
2018-11-13T11:18:02.801Z,20.73
2018-11-13T11:20:30.472Z,18.47
2018-11-13T11:22:57.972Z,17.47
2018-11-13T11:25:25.520Z,17.83
2018-11-13T11:27:53.603Z,17.60
2018-11-13T11:30:22.836Z,18.03
2018-11-13T11:32:51.055Z,17.20
2018-11-13T11:39:38.648Z,17.53
2018-11-13T11:42:06.098Z,17.03
2018-11-13T11:44:34.317Z,17.40
2018-11-13T11:47:02.593Z,17.17
2018-11-13T11:49:30.698Z,16.93
2018-11-13T11:51:58.929Z,17.93
2018-11-13T11:54:27.206Z,16.20
2018-11-13T11:56:55.969Z,17.87
2018-11-13T11:59:23.440Z,17.93
2018-11-13T12:01:51.917Z,18.23
2018-11-13T12:04:19.347Z,17.87
2018-11-13T12:06:46.767Z,18.67
2018-11-13T12:09:14.214Z,18.93
2018-11-13T12:11:41.827Z,18.37
2018-11-13T12:14:10.718Z,19.50
2018-11-13T12:16:38.636Z,20.10
2018-11-13T12:19:06.574Z,19.43
2018-11-13T12:21:34.131Z,19.87
2018-11-13T12:24:01.750Z,19.77
2018-11-13T12:26:30.563Z,19.47
2018-11-13T12:28:57.962Z,19.33
2018-11-13T12:31:25.384Z,18.70
2018-11-13T12:33:52.854Z,18.17
2018-11-13T12:36:20.234Z,17.73
2018-11-13T12:38:48.351Z,18.60
2018-11-13T12:41:15.769Z,18.73
2018-11-13T12:43:44.255Z,17.53
2018-11-13T12:46:11.753Z,18.80
2018-11-13T12:48:39.311Z,18.00
2018-11-13T12:51:08.161Z,18.03
2018-11-13T12:53:36.773Z,17.63
2018-11-13T12:56:04.439Z,17.17
2018-11-13T12:58:32.531Z,17.43
2018-11-13T13:01:01.079Z,17.53
2018-11-13T13:03:28.503Z,16.30
2018-11-13T13:05:55.961Z,16.10
2018-11-13T13:08:23.366Z,17.27
2018-11-13T13:10:50.767Z,16.33
2018-11-13T13:13:18.782Z,16.73
2018-11-13T13:15:46.841Z,17.43
2018-11-13T13:18:14.231Z,17.30
2018-11-13T13:20:41.690Z,16.77
2018-11-13T13:23:09.906Z,16.23
2018-11-13T13:25:37.968Z,15.97
2018-11-13T13:28:06.196Z,17.03
2018-11-13T13:30:34.318Z,16.43
2018-11-13T13:33:02.287Z,16.00
2018-11-13T13:35:42.014Z,15.07
2018-11-13T13:38:09.986Z,15.60
2018-11-13T13:40:38.395Z,14.73
2018-11-13T13:43:06.349Z,12.20
2018-11-13T13:45:33.949Z,11.80
2018-11-13T13:48:01.346Z,17.23
2018-11-13T13:50:29.533Z,11.87
2018-11-13T13:52:57.351Z,13.87
2018-11-13T13:55:26.537Z,11.07
2018-11-13T13:57:54.802Z,10.33
2018-11-13T14:00:22.506Z,10.87
2018-11-13T14:02:50.257Z,9.53
2018-11-13T14:05:17.964Z,8.57
2018-11-13T14:07:45.410Z,6.87
2018-11-13T14:10:12.989Z,6.03
2018-11-13T14:12:41.205Z,5.90
2018-11-13T14:15:11.028Z,6.50
2018-11-13T14:17:39.110Z,6.77
2018-11-13T14:20:08.393Z,6.67
2018-11-13T14:22:35.819Z,6.30
2018-11-13T14:25:03.246Z,6.10
2018-11-13T14:27:30.656Z,5.07
2018-11-13T14:29:58.411Z,6.83
2018-11-13T14:32:25.911Z,5.60
2018-11-13T14:34:53.350Z,6.60
2018-11-13T14:37:21.631Z,5.07
2018-11-13T14:39:49.031Z,6.00
2018-11-13T14:42:16.442Z,6.27
2018-11-13T14:44:43.848Z,5.97
2018-11-13T14:47:11.398Z,6.63
2018-11-13T14:49:38.822Z,7.30
2018-11-13T14:52:06.406Z,7.90
2018-11-13T14:54:33.822Z,7.37
2018-11-13T14:57:01.272Z,8.03
2018-11-13T14:59:28.705Z,7.00
2018-11-13T15:01:56.077Z,7.80
2018-11-13T15:04:23.558Z,7.70
2018-11-13T15:06:50.950Z,8.23
2018-11-13T15:09:18.334Z,8.10
2018-11-13T15:11:45.805Z,9.20
2018-11-13T15:14:13.203Z,9.27
2018-11-13T15:16:40.581Z,8.40
2018-11-13T15:19:07.995Z,9.20
2018-11-13T15:21:35.585Z,8.83
2018-11-13T15:24:02.818Z,8.63
2018-11-13T15:26:30.250Z,8.23
2018-11-13T15:28:57.654Z,7.50
2018-11-13T15:31:25.040Z,9.43
2018-11-13T15:33:52.531Z,9.57
2018-11-13T15:36:19.904Z,9.53
2018-11-13T15:38:47.277Z,9.47
2018-11-13T15:41:14.747Z,9.13
2018-11-13T15:43:42.203Z,10.43
2018-11-13T15:46:09.617Z,9.83
2018-11-13T15:48:37.090Z,10.83
2018-11-13T15:51:04.506Z,9.10
2018-11-13T15:53:31.941Z,8.87
2018-11-13T15:56:03.674Z,8.30
2018-11-13T15:58:32.811Z,8.83
2018-11-13T16:01:04.511Z,9.77
2018-11-13T16:03:34.292Z,9.60
2018-11-13T16:06:01.919Z,10.00
2018-11-13T16:08:49.334Z,9.60
2018-11-13T16:11:17.234Z,9.53
2018-11-13T16:13:44.627Z,9.43
2018-11-13T16:16:12.326Z,8.33
2018-11-13T16:18:39.816Z,9.40
2018-11-13T16:21:07.320Z,9.30
2018-11-13T16:23:35.084Z,9.17
2018-11-13T16:26:02.631Z,8.77
2018-11-13T16:28:30.332Z,7.47
2018-11-13T16:30:58.032Z,6.77
2018-11-13T16:33:25.413Z,7.47
2018-11-13T16:35:53.018Z,8.10
2018-11-13T16:38:20.620Z,8.97
2018-11-13T16:40:47.932Z,8.17
2018-11-13T16:43:15.680Z,8.77
2018-11-13T16:45:44.893Z,8.30
2018-11-13T16:48:12.349Z,8.93
2018-11-13T16:50:41.014Z,8.70
2018-11-13T16:53:11.491Z,8.17
2018-11-13T16:55:44.427Z,7.73
2018-11-13T16:58:13.255Z,6.67
2018-11-13T17:00:40.773Z,6.73
2018-11-13T17:03:08.162Z,7.17
2018-11-13T17:05:35.728Z,6.93
2018-11-13T17:08:03.149Z,6.60
2018-11-13T17:10:31.453Z,6.37
2018-11-13T17:12:59.406Z,6.07
2018-11-13T17:15:28.202Z,6.23
2018-11-13T17:17:56.617Z,6.27
2018-11-13T17:20:24.141Z,6.43
2018-11-13T17:22:51.997Z,5.97
2018-11-13T17:25:20.886Z,6.27
2018-11-13T17:27:49.498Z,5.73
2018-11-13T17:30:21.431Z,4.50
2018-11-13T17:32:49.433Z,5.47
2018-11-13T17:35:18.814Z,5.00
2018-11-13T17:37:47.058Z,5.37
2018-11-13T17:40:17.000Z,4.73
2018-11-13T17:42:45.165Z,5.10
2018-11-13T17:45:14.784Z,5.13
2018-11-13T17:47:42.276Z,6.07
2018-11-13T17:50:12.621Z,5.90
2018-11-13T17:52:40.163Z,5.80
2018-11-13T17:55:07.996Z,5.73
2018-11-13T17:57:35.405Z,5.13
2018-11-13T18:00:03.190Z,5.17
2018-11-13T18:02:30.693Z,6.83
2018-11-13T18:04:58.180Z,6.40
2018-11-13T18:07:25.658Z,6.17
2018-11-13T18:09:53.134Z,7.20
2018-11-13T18:12:20.585Z,6.53
2018-11-13T18:14:48.155Z,5.90
2018-11-13T18:17:15.547Z,5.53
2018-11-13T18:19:43.170Z,5.00
2018-11-13T18:22:10.954Z,4.70
2018-11-13T18:24:38.260Z,4.37
2018-11-13T18:27:06.526Z,4.77
2018-11-13T18:29:34.062Z,5.00
2018-11-13T18:32:02.325Z,4.60
2018-11-13T18:34:29.884Z,5.00
2018-11-13T18:36:57.518Z,5.83
2018-11-13T18:39:25.290Z,4.93
2018-11-13T18:41:52.816Z,4.80
2018-11-13T18:44:20.431Z,4.57
2018-11-13T18:46:48.150Z,4.57
2018-11-13T18:49:16.728Z,4.77
2018-11-13T18:51:44.562Z,5.23
2018-11-13T18:54:12.282Z,3.87
2018-11-13T18:56:40.070Z,4.23
2018-11-13T18:59:07.849Z,3.77
2018-11-13T19:01:35.472Z,3.70
2018-11-13T19:04:03.083Z,2.90
2018-11-13T19:06:30.910Z,4.50
2018-11-13T19:08:58.613Z,4.00
2018-11-13T19:11:26.441Z,4.50
2018-11-13T19:13:54.134Z,4.77
2018-11-13T19:16:21.882Z,4.73
2018-11-13T19:18:49.848Z,4.63
2018-11-13T19:21:17.485Z,5.10
2018-11-13T19:23:45.075Z,5.50
2018-11-13T19:26:12.700Z,5.03
2018-11-13T19:28:41.539Z,4.77
2018-11-13T19:31:09.421Z,5.57
2018-11-13T19:33:37.001Z,5.83
2018-11-13T19:36:04.828Z,5.27
2018-11-13T19:38:32.492Z,11.40
2018-11-13T19:41:00.828Z,7.13
2018-11-13T19:43:28.721Z,5.43
2018-11-13T19:45:57.261Z,5.20
2018-11-13T19:48:26.098Z,4.67
2018-11-13T19:50:54.375Z,4.97
2018-11-13T19:53:22.151Z,4.23
2018-11-13T19:55:49.937Z,4.63
2018-11-13T19:58:17.475Z,3.97
2018-11-13T20:00:45.212Z,4.00
2018-11-13T20:03:12.737Z,4.10
2018-11-13T20:05:40.346Z,4.00
2018-11-13T20:08:08.334Z,4.40
2018-11-13T20:10:37.321Z,4.17
2018-11-13T20:13:06.011Z,3.90
2018-11-13T20:15:34.165Z,4.00
2018-11-13T20:18:01.743Z,4.03
2018-11-13T20:20:30.293Z,4.10
2018-11-13T20:22:58.688Z,4.93
2018-11-13T20:25:27.517Z,4.47
2018-11-13T20:27:55.015Z,4.07
2018-11-13T20:30:27.667Z,3.53
2018-11-13T20:32:55.222Z,3.50
2018-11-13T20:35:22.696Z,3.50
2018-11-13T20:37:50.870Z,3.40
2018-11-13T20:40:20.631Z,3.40
2018-11-13T20:42:49.403Z,3.80
2018-11-13T20:45:16.934Z,4.07
2018-11-13T20:47:44.383Z,5.57
2018-11-13T20:50:13.227Z,7.77
2018-11-13T20:52:40.688Z,4.87
2018-11-13T20:55:08.284Z,4.87
2018-11-13T20:57:35.975Z,5.57
2018-11-13T21:00:03.554Z,3.83
2018-11-13T21:02:31.101Z,3.70
2018-11-13T21:04:58.494Z,3.43
2018-11-13T21:07:26.025Z,3.07
2018-11-13T21:09:53.864Z,3.07
2018-11-13T21:12:20.962Z,3.53
2018-11-13T21:14:48.458Z,2.90
2018-11-13T21:17:16.053Z,3.40
2018-11-13T21:19:43.399Z,3.30
2018-11-13T21:22:10.862Z,3.07
2018-11-13T21:24:38.327Z,2.97
2018-11-13T21:27:05.815Z,3.10
2018-11-13T21:29:33.385Z,4.47
2018-11-13T21:32:00.884Z,4.00
2018-11-13T21:34:28.693Z,3.70
2018-11-13T21:36:56.393Z,3.40
2018-11-13T21:39:23.775Z,4.63
2018-11-13T21:41:51.238Z,5.10
2018-11-13T21:44:18.915Z,4.40
2018-11-13T21:46:46.154Z,4.70
2018-11-13T21:49:13.612Z,4.43
2018-11-13T21:51:41.099Z,4.80
2018-11-13T21:54:08.569Z,3.57
2018-11-13T21:56:36.008Z,3.83
2018-11-13T21:59:03.563Z,3.40
2018-11-13T22:01:31.059Z,3.03
2018-11-13T22:03:58.521Z,4.47
2018-11-13T22:06:25.991Z,4.27
2018-11-13T22:08:53.393Z,3.80
2018-11-13T22:11:20.838Z,2.80
2018-11-13T22:13:48.294Z,2.77
2018-11-13T22:16:15.986Z,2.40
2018-11-13T22:18:43.140Z,2.97
2018-11-13T22:21:10.679Z,2.90
2018-11-13T22:23:38.047Z,3.17
2018-11-13T22:26:05.810Z,3.70
2018-11-13T22:28:33.678Z,4.07
2018-11-13T22:31:01.007Z,4.43
2018-11-13T22:33:28.438Z,4.50
2018-11-13T22:35:56.442Z,4.47
2018-11-13T22:38:23.878Z,4.40
2018-11-13T22:40:51.313Z,4.00
2018-11-13T22:43:18.761Z,4.50
2018-11-13T22:45:46.183Z,4.10
2018-11-13T22:48:13.594Z,3.70
2018-11-13T22:50:41.068Z,4.57
2018-11-13T22:53:08.483Z,4.30
2018-11-13T22:55:35.909Z,4.20
2018-11-13T22:58:03.349Z,3.70
2018-11-13T23:00:38.870Z,4.03
2018-11-13T23:03:06.850Z,3.97
2018-11-13T23:05:34.346Z,4.53
2018-11-13T23:08:01.778Z,4.53
2018-11-13T23:10:29.250Z,4.37
2018-11-13T23:12:56.744Z,4.20
2018-11-13T23:15:24.093Z,4.40
2018-11-13T23:17:51.527Z,4.90
2018-11-13T23:20:20.022Z,5.23
2018-11-13T23:22:47.448Z,5.47
2018-11-13T23:25:17.117Z,4.57
2018-11-13T23:27:45.436Z,6.20
2018-11-13T23:30:16.460Z,5.43
2018-11-13T23:32:44.174Z,5.43
2018-11-13T23:35:12.250Z,6.20
2018-11-13T23:37:39.896Z,4.80
2018-11-13T23:40:08.294Z,5.03
2018-11-13T23:42:35.732Z,5.10
2018-11-13T23:45:03.177Z,5.80
2018-11-13T23:47:30.798Z,5.20
2018-11-13T23:49:58.521Z,5.50
2018-11-13T23:52:25.731Z,5.33
2018-11-13T23:54:53.374Z,4.80
2018-11-13T23:57:20.786Z,5.23
2018-11-13T23:59:48.203Z,5.30
